^^
Datos históricos de la estación: Murcia-Puente Tocinos
Diario Informe para Abril 23, 2019 Unidades:  Métrico    Ingés   Ambas
Diario Semanal Mensual Anual
  Máxima: Mínima: Promedio:
Temperatura: 21.2 °C 12.8 °C 16.2 °C
Punto de rocio: 11.7 °C 4.9 °C 10 °C
Humedad: 89% 43.7% 69%
Velocidad viento: 21.7km/h 0km/h 7.4km/h
Racha viento: 37km/h - -
Viento- - SO
Presión: 1004.0 hPa 997.3 hPa -
Precipitación: 0.8 mm    
 
 
Tabla de datos para Abril 23, 2019
Hora Temperatura Punto de rocio Presión Viento Velocidad viento Racha viento Humedad Intensidad lluvia(por hora) Nubes
00:04 15.6 °C 11.3 °C 999.8 hPa Sur 6.9 km/h 11.1 km/h 76% 0.0 mm
00:09 15.4 °C 11.3 °C 999.7 hPa SSO 6.8 km/h 11.3 km/h 76.5% 0.0 mm
00:14 15.3 °C 11.3 °C 999.7 hPa SSO 6.5 km/h 11.1 km/h 77% 0.0 mm
00:19 15.3 °C 11.3 °C 999.7 hPa SO 6.5 km/h 11.3 km/h 77% 0.0 mm
00:24 15.3 °C 11.3 °C 999.7 hPa OSO 6.5 km/h 9.5 km/h 77% 0.0 mm
00:29 15.2 °C 11.2 °C 999.7 hPa OSO 5.9 km/h 9.7 km/h 77% 0.0 mm
00:34 15.2 °C 11.3 °C 999.7 hPa SSO 5 km/h 9.7 km/h 77.7% 0.0 mm
00:39 15.2 °C 11.4 °C 999.6 hPa SSO 4.5 km/h 8 km/h 78% 0.0 mm
00:44 15.1 °C 11.4 °C 999.6 hPa SE 3.9 km/h 8 km/h 78.6% 0.0 mm
00:49 15 °C 11.3 °C 999.6 hPa SE 3.5 km/h 6.4 km/h 79% 0.0 mm
00:54 14.8 °C 11.4 °C 999.4 hPa SE 2.9 km/h 6.4 km/h 79.6% 0.0 mm
00:59 14.8 °C 11.4 °C 999.4 hPa SSO 3.1 km/h 8.4 km/h 80% 0.0 mm
01:04 14.8 °C 11.4 °C 999.4 hPa SO 3.2 km/h 8 km/h 80% 0.0 mm
01:09 14.8 °C 11.4 °C 999.3 hPa OSO 3.2 km/h 9.5 km/h 80% 0.0 mm
01:14 14.7 °C 11.3 °C 999.3 hPa OSO 3.2 km/h 9.7 km/h 80% 0.0 mm
01:19 14.7 °C 11.2 °C 999.3 hPa OSO 3.5 km/h 8.4 km/h 80% 0.0 mm
01:24 14.6 °C 11.2 °C 999.3 hPa OSO 3.9 km/h 8 km/h 80% 0.0 mm
01:29 14.4 °C 11.1 °C 999.3 hPa OSO 3.9 km/h 8 km/h 80.6% 0.0 mm
01:34 14.3 °C 11.1 °C 999.3 hPa Oeste 3.9 km/h 7.4 km/h 81% 0.0 mm
01:39 14.3 °C 11.1 °C 999.3 hPa Oeste 3.5 km/h 8 km/h 81.2% 0.0 mm
01:44 14.2 °C 11.2 °C 999.3 hPa Oeste 2.9 km/h 3.7 km/h 82% 0.0 mm
01:49 14.2 °C 11.2 °C 999.3 hPa Oeste 1.7 km/h 3.2 km/h 82% 0.0 mm
01:54 14.1 °C 11.1 °C 999.0 hPa Calm     82% 0.0 mm
01:59 14.1 °C 11.2 °C 999.0 hPa Calm     82.9% 0.0 mm
02:04 13.9 °C 11.1 °C 999.0 hPa Calm     83% 0.0 mm
02:09 13.9 °C 11.2 °C 999.0 hPa Calm   5 km/h 83.9% 0.0 mm
02:14 13.9 °C 11.2 °C 999.0 hPa Calm   7.6 km/h 84% 0.0 mm
02:19 13.9 °C 11.2 °C 999.0 hPa OSO 1.6 km/h 8 km/h 84% 0.0 mm
02:24 13.9 °C 11.2 °C 998.8 hPa OSO 3.9 km/h 8 km/h 84% 0.0 mm
02:29 13.9 °C 11.2 °C 998.8 hPa SO 3.2 km/h 6.4 km/h 84% 0.0 mm
02:34 13.9 °C 11.2 °C 998.8 hPa Sur 2.2 km/h 8 km/h 84% 0.0 mm
02:39 13.9 °C 11.2 °C 998.8 hPa SSO 2.9 km/h 8 km/h 84% 0.0 mm
02:44 13.9 °C 11.2 °C 998.8 hPa SSO 3.9 km/h 8 km/h 84% 0.0 mm
02:49 13.9 °C 11.2 °C 998.8 hPa SSO 3.2 km/h 8 km/h 84% 0.0 mm
02:54 13.9 °C 11.2 °C 998.8 hPa SSO 2.2 km/h 3.7 km/h 84% 0.0 mm
02:59 13.9 °C 11.2 °C 998.8 hPa SSO 1.1 km/h 5.8 km/h 84% 0.0 mm
03:04 13.9 °C 11.2 °C 998.8 hPa Calm   7.4 km/h 84% 0.0 mm
03:09 13.8 °C 11.1 °C 998.6 hPa SE 1.9 km/h 8.4 km/h 84.1% 0.0 mm
03:14 13.6 °C 11.1 °C 998.6 hPa SE 4.6 km/h 8 km/h 85% 0.0 mm
03:19 13.4 °C 11 °C 998.6 hPa SE 4.7 km/h 8 km/h 85.4% 0.0 mm
03:24 13.3 °C 11 °C 998.3 hPa SE 4.7 km/h 8 km/h 86% 0.0 mm
03:29 13.3 °C 11.1 °C 998.3 hPa SE 4.1 km/h 8 km/h 86.4% 0.0 mm
03:34 13.3 °C 11.2 °C 998.3 hPa SE 3.2 km/h 1.6 km/h 87% 0.0 mm
03:39 13.3 °C 11.2 °C 998.2 hPa SE 1.9 km/h   87% 0.0 mm
03:44 13.4 °C 11.3 °C 998.2 hPa Calm   5.8 km/h 87% 0.0 mm
03:49 13.4 °C 11.3 °C 998.2 hPa Calm   6.4 km/h 86.9% 0.0 mm
03:54 13.4 °C 11.2 °C 998.1 hPa Calm   6.4 km/h 86.8% 0.0 mm
03:59 13.4 °C 11.1 °C 998.1 hPa Calm   5 km/h 86% 0.0 mm
04:04 13.5 °C 11.2 °C 998.1 hPa Calm   7.4 km/h 86% 0.0 mm
04:09 13.5 °C 11.2 °C 998.0 hPa SSE 1.6 km/h 8 km/h 86% 0.0 mm
04:14 13.6 °C 11.2 °C 998.0 hPa Sur 3.9 km/h 9.5 km/h 85.6% 0.0 mm
04:19 13.6 °C 11.1 °C 998.0 hPa Sur 4.6 km/h 9.7 km/h 85% 0.0 mm
04:24 13.6 °C 11.1 °C 997.9 hPa SSE 5.8 km/h 13 km/h 85% 0.0 mm
04:29 13.6 °C 11.1 °C 997.9 hPa Sur 6.5 km/h 13 km/h 85% 0.0 mm
04:34 13.6 °C 11.1 °C 997.9 hPa Sur 7.6 km/h 11.3 km/h 85% 0.0 mm
04:39 13.7 °C 11.1 °C 997.7 hPa Sur 7.6 km/h 11.1 km/h 84.4% 0.0 mm
04:44 13.7 °C 11.1 °C 997.7 hPa Sur 7.6 km/h 11.9 km/h 84% 0.0 mm
04:49 13.7 °C 11.1 °C 997.8 hPa Sur 8 km/h 14.8 km/h 84% 0.0 mm
04:54 13.8 °C 11.1 °C 997.8 hPa SSO 8.7 km/h 14.5 km/h 84% 0.0 mm
04:59 13.8 °C 11.2 °C 997.8 hPa SO 7.8 km/h 11.3 km/h 84% 0.0 mm
05:04 13.8 °C 11 °C 997.8 hPa SO 6.9 km/h 9.7 km/h 83% 0.0 mm
05:09 13.9 °C 11.1 °C 997.7 hPa SO 6.7 km/h 9.7 km/h 83% 0.0 mm
05:14 13.9 °C 11.1 °C 997.7 hPa SSO 6.5 km/h 8.4 km/h 83% 0.0 mm
05:19 13.9 °C 11.1 °C 997.7 hPa SSO 5.8 km/h 8 km/h 83% 0.0 mm
05:24 13.9 °C 11 °C 997.7 hPa SSO 4.7 km/h 5.8 km/h 82.5% 0.0 mm
05:29 13.9 °C 11 °C 997.7 hPa SSO 3.7 km/h 6.4 km/h 82.8% 0.0 mm
05:34 13.8 °C 11 °C 997.7 hPa NO 2.2 km/h 8.4 km/h 83% 0.0 mm
05:39 13.7 °C 11 °C 997.5 hPa NO 2.5 km/h 8 km/h 83.6% 0.0 mm
05:44 13.6 °C 11 °C 997.5 hPa Oeste 2.9 km/h 8.4 km/h 84.1% 0.0 mm
05:49 13.5 °C 11 °C 997.5 hPa SSE 3 km/h 8.7 km/h 85% 0.0 mm
05:54 13.4 °C 11 °C 997.5 hPa SSE 3.2 km/h 13 km/h 85% 0.0 mm
05:59 13.3 °C 11 °C 997.5 hPa SSE 5.3 km/h 12.9 km/h 85.6% 0.0 mm
06:04 13.2 °C 10.9 °C 997.5 hPa SSE 7.6 km/h 10 km/h 86% 0.0 mm
06:09 13.2 °C 11 °C 997.5 hPa Sur 7.1 km/h 9.7 km/h 86.6% 0.0 mm
06:14 13.2 °C 11.1 °C 997.5 hPa SO 6.5 km/h 9.7 km/h 87% 0.0 mm
06:19 13.2 °C 11 °C 997.5 hPa SO 5.9 km/h 9.3 km/h 87% 0.0 mm
06:24 13.2 °C 11.2 °C 997.4 hPa OSO 5 km/h 9.7 km/h 87.8% 0.0 mm
06:29 13.2 °C 11.3 °C 997.4 hPa OSO 4.3 km/h 8 km/h 88% 0.0 mm
06:34 13.2 °C 11.1 °C 997.4 hPa SSE 3.2 km/h 6.9 km/h 87.2% 0.0 mm
06:39 13.1 °C 10.9 °C 997.3 hPa SE 3.1 km/h 6.4 km/h 87% 0.0 mm
06:44 12.9 °C 10.9 °C 997.3 hPa SE 2.9 km/h 6.4 km/h 87.6% 0.0 mm
06:49 12.8 °C 10.9 °C 997.4 hPa SE 2.9 km/h 8 km/h 88% 0.0 mm
06:54 12.8 °C 10.9 °C 997.4 hPa SE 2.9 km/h 8 km/h 88.3% 0.0 mm
06:59 12.8 °C 11.1 °C 997.4 hPa Sur 2.6 km/h 7.4 km/h 89% 0.0 mm
07:04 12.8 °C 11.1 °C 997.6 hPa SO 2.2 km/h 8 km/h 89% 0.0 mm
07:09 12.8 °C 11 °C 997.6 hPa Sur 3.2 km/h 11.1 km/h 88.8% 0.0 mm
07:14 12.9 °C 10.9 °C 997.6 hPa SSO 4.7 km/h 11.3 km/h 88% 0.0 mm
07:19 12.9 °C 10.9 °C 997.7 hPa SSO 5.6 km/h 11.1 km/h 87.3% 0.0 mm
07:24 13.1 °C 11 °C 997.7 hPa Sur 6.9 km/h 13 km/h 87% 0.0 mm
07:29 13.1 °C 11 °C 997.7 hPa SSE 7.5 km/h 13 km/h 87% 0.0 mm
07:34 13 °C 10.9 °C 997.7 hPa SSE 8.4 km/h 13 km/h 87% 0.0 mm
07:39 12.9 °C 10.8 °C 997.6 hPa Sur 7.3 km/h 12.9 km/h 87% 0.0 mm
07:44 12.9 °C 10.8 °C 997.6 hPa SO 5.8 km/h 8 km/h 87% 0.0 mm
07:49 12.9 °C 10.8 °C 997.8 hPa OSO 5.3 km/h 10 km/h 87% 0.0 mm
07:54 12.9 °C 10.8 °C 997.8 hPa OSO 4.7 km/h 11.9 km/h 87.2% 0.0 mm
07:59 12.9 °C 10.8 °C 997.8 hPa SO 5.5 km/h 11.3 km/h 87% 0.0 mm
08:04 13.1 °C 10.9 °C 997.8 hPa OSO 6.5 km/h 9.7 km/h 86.7% 0.0 mm
08:09 13.1 °C 10.8 °C 997.8 hPa SO 5.9 km/h 9.7 km/h 86% 0.0 mm
08:14 13.2 °C 10.9 °C 997.8 hPa SO 5 km/h 9.7 km/h 86% 0.0 mm
08:19 13.2 °C 10.9 °C 997.8 hPa SO 3 km/h 4.8 km/h 86% 0.0 mm
08:24 13.2 °C 10.9 °C 997.7 hPa Calm   4.7 km/h 86% 0.0 mm
08:29 13.2 °C 10.9 °C 997.7 hPa SO 0.9 km/h 4.8 km/h 86% 0.0 mm
08:34 13.3 °C 11 °C 997.8 hPa SO 2.2 km/h 4.8 km/h 86% 0.0 mm
08:39 13.3 °C 11 °C 997.8 hPa SO 1.3 km/h 3.2 km/h 86% 0.0 mm
08:44 13.3 °C 11 °C 997.8 hPa Calm     86% 0.0 mm
08:49 13.3 °C 11 °C 998.0 hPa Calm   5.6 km/h 85.6% 0.0 mm
08:54 13.3 °C 10.9 °C 998.0 hPa Calm   7.4 km/h 85% 0.0 mm
08:59 13.4 °C 10.9 °C 998.0 hPa Oeste 1.4 km/h 8 km/h 85% 0.0 mm
09:04 13.4 °C 11 °C 998.0 hPa Oeste 2.9 km/h 5 km/h 85.2% 0.0 mm
09:09 13.6 °C 11.1 °C 997.7 hPa Oeste 1.7 km/h 5.6 km/h 85% 0.0 mm
09:14 13.8 °C 11 °C 997.7 hPa Calm   6.4 km/h 83.4% 0.0 mm
09:19 14 °C 11 °C 997.8 hPa Sur 1.1 km/h 8 km/h 82% 0.0 mm
09:24 14.3 °C 11.1 °C 997.8 hPa Sur 2.9 km/h 8 km/h 80.8% 0.0 mm
09:29 14.7 °C 11.1 °C 997.8 hPa SE 3.3 km/h 8 km/h 79.4% 0.0 mm
09:34 14.9 °C 11.2 °C 997.8 hPa SE 3.9 km/h 8.4 km/h 78.7% 0.0 mm
09:39 15.2 °C 11.2 °C 997.7 hPa SE 4.3 km/h 8.4 km/h 77.4% 0.0 mm
09:44 15.4 °C 10.9 °C 997.7 hPa Sur 5 km/h 9.3 km/h 74.8% 0.0 mm
09:49 15.7 °C 10.8 °C 997.7 hPa SSE 4.9 km/h 9.7 km/h 73% 0.0 mm
09:54 15.8 °C 11 °C 997.7 hPa Sur 4.6 km/h 8 km/h 72.9% 0.0 mm
09:59 16.1 °C 10.9 °C 997.7 hPa OSO 3.8 km/h 8 km/h 71.1% 0.0 mm
10:04 16.3 °C 10.8 °C 997.8 hPa SSO 2.9 km/h 8.4 km/h 70.2% 0.0 mm
10:09 16.3 °C 10.7 °C 997.8 hPa SO 3.6 km/h 8 km/h 69.3% 0.0 mm
10:14 16.4 °C 10.8 °C 997.8 hPa OSO 4.7 km/h 8 km/h 69.6% 0.0 mm
10:19 16.5 °C 10.7 °C 998.0 hPa SO 4.3 km/h 9.5 km/h 68.5% 0.0 mm
10:24 16.6 °C 10.7 °C 998.0 hPa Oeste 3.9 km/h 10.3 km/h 68% 0.0 mm
10:29 16.7 °C 10.8 °C 998.0 hPa Oeste 4.3 km/h 9.7 km/h 68.3% 0.0 mm
10:34 16.8 °C 10.7 °C 998.0 hPa SO 5 km/h 7.6 km/h 67.6% 0.0 mm
10:39 17 °C 10.6 °C 997.9 hPa Sur 4.3 km/h 8 km/h 66% 0.0 mm
10:44 17.3 °C 10 °C 997.9 hPa SSO 3.2 km/h 8.4 km/h 62.4% 0.0 mm
10:49 17.6 °C 9.7 °C 997.9 hPa Sur 3.8 km/h 11.1 km/h 59.8% 0.0 mm
10:54 17.8 °C 9.6 °C 997.9 hPa Sur 4.7 km/h 13 km/h 58.6% 0.0 mm
10:59 17.9 °C 9.6 °C 997.9 hPa SE 5.5 km/h 12.9 km/h 58.3% 0.0 mm
11:04 18.1 °C 9.7 °C 997.9 hPa SSE 6.5 km/h 9.7 km/h 58% 0.0 mm
11:09 18.3 °C 9.9 °C 997.9 hPa SE 5.7 km/h 9.7 km/h 58% 0.0 mm
11:14 18.5 °C 9.7 °C 997.9 hPa SSO 4.7 km/h 8.4 km/h 56.5% 0.0 mm
11:19 18.7 °C 9.5 °C 998.1 hPa SO 4.8 km/h 9.3 km/h 55.1% 0.0 mm
11:24 18.8 °C 9.5 °C 998.1 hPa SO 5 km/h 10 km/h 55% 0.0 mm
11:29 18.8 °C 9.6 °C 998.1 hPa Oeste 5 km/h 11.1 km/h 55% 0.0 mm
11:34 18.8 °C 9.3 °C 998.1 hPa ONO 5 km/h 11.3 km/h 54.1% 0.0 mm
11:39 18.8 °C 9 °C 998.1 hPa Oeste 5 km/h 9.7 km/h 52.8% 0.0 mm
11:44 19.1 °C 9.4 °C 998.1 hPa NNO 5 km/h 10 km/h 53.6% 0.0 mm
11:49 19.3 °C 9.6 °C 998.1 hPa NO 4.6 km/h 9.5 km/h 53.2% 0.0 mm
11:54 19.5 °C 9.4 °C 998.1 hPa Oeste 3.9 km/h 12.2 km/h 52% 0.0 mm
11:59 19.7 °C 9.2 °C 998.1 hPa ONO 4.8 km/h 13 km/h 51.1% 0.0 mm
12:04 19.6 °C 9.1 °C 998.1 hPa OSO 5.8 km/h 12.9 km/h 50.8% 0.0 mm
12:09 19.7 °C 9.1 °C 998.1 hPa NO 5.4 km/h 11.1 km/h 50.4% 0.0 mm
12:14 19.8 °C 9.1 °C 998.1 hPa ONO 5 km/h 11.3 km/h 50.1% 0.0 mm
12:19 19.9 °C 8.7 °C 998.2 hPa ONO 4.9 km/h 11.9 km/h 48.2% 0.0 mm
12:24 20 °C 8.8 °C 998.2 hPa NO 4.7 km/h 11.3 km/h 48.3% 0.0 mm
12:29 20.2 °C 9.2 °C 998.2 hPa NO 4 km/h 8.4 km/h 49.3% 0.0 mm
12:34 20.3 °C 9.2 °C 998.2 hPa NO 2.9 km/h 10 km/h 48.9% 0.0 mm
12:39 20.2 °C 9.3 °C 998.1 hPa NNE 3.6 km/h 9.7 km/h 49.4% 0.0 mm
12:44 20.3 °C 9.2 °C 998.1 hPa NNO 4.7 km/h 8.4 km/h 48.9% 0.0 mm
12:49 20.3 °C 9.3 °C 998.1 hPa NO 4.1 km/h 8 km/h 49% 0.0 mm
12:54 20.6 °C 9.2 °C 998.1 hPa NO 3.2 km/h 10 km/h 48.2% 0.0 mm
12:59 20.7 °C 9 °C 998.1 hPa North 3.2 km/h 9.7 km/h 47.1% 0.0 mm
13:04 20.8 °C 9.1 °C 998.1 hPa NE 3.2 km/h 8 km/h 47.1% 0.0 mm
13:09 20.8 °C 8.8 °C 997.7 hPa ONO 3.5 km/h 8 km/h 46.2% 0.0 mm
13:14 20.8 °C 8.8 °C 997.7 hPa Oeste 3.9 km/h 8 km/h 45.9% 0.0 mm
13:19 21.1 °C 8.7 °C 998.0 hPa SO 3.5 km/h 11.1 km/h 45.1% 0.0 mm
13:24 21 °C 8.7 °C 998.0 hPa Oeste 2.9 km/h 11.3 km/h 45.3% 0.0 mm
13:29 20.9 °C 8.9 °C 998.0 hPa ONO 3.6 km/h 8.4 km/h 46% 0.0 mm
13:34 21.1 °C 8.7 °C 998.0 hPa NNO 4.7 km/h 8 km/h 45% 0.0 mm
13:39 21.2 °C 8.5 °C 997.8 hPa ONO 3.9 km/h 7.4 km/h 44.2% 0.0 mm
13:44 21.2 °C 8.3 °C 997.8 hPa SE 2.9 km/h 17.2 km/h 43.7% 0.0 mm
13:49 20.9 °C 8.2 °C 997.9 hPa SSE 5.2 km/h 17.7 km/h 44% 0.0 mm
13:54 20.8 °C 8.6 °C 997.9 hPa SSE 8.7 km/h 16.1 km/h 45.3% 0.0 mm
13:59 20.8 °C 8.7 °C 997.9 hPa SE 8.7 km/h 15.6 km/h 45.8% 0.0 mm
14:04 20.8 °C 8.8 °C 998.0 hPa SE 8.7 km/h 18.5 km/h 46% 0.0 mm
14:09 20.8 °C 8.9 °C 998.0 hPa SSE 9.6 km/h 19.3 km/h 46.5% 0.0 mm
14:14 20.8 °C 9 °C 998.0 hPa SE 11.1 km/h 15.6 km/h 46.8% 0.0 mm
14:19 20.8 °C 8.7 °C 998.1 hPa SSE 10.2 km/h 20.9 km/h 45.8% 0.0 mm
14:24 20.8 °C 8.8 °C 998.1 hPa Sur 8.7 km/h 20.9 km/h 46.1% 0.0 mm
14:29 20.8 °C 8.9 °C 998.1 hPa SSO 8.6 km/h 16.1 km/h 46.5% 0.0 mm
14:34 20.8 °C 8.9 °C 998.1 hPa OSO 8.4 km/h 13.7 km/h 46.5% 0.0 mm
14:39 20.9 °C 8.6 °C 998.1 hPa SO 9 km/h 24.5 km/h 45.3% 0.0 mm
14:44 20.9 °C 8.8 °C 998.1 hPa SO 10 km/h 24.1 km/h 45.9% 0.0 mm
14:49 20.8 °C 8.8 °C 998.2 hPa OSO 10 km/h 19.8 km/h 46.2% 0.0 mm
14:54 20.7 °C 9 °C 998.2 hPa Oeste 10 km/h 37 km/h 47.2% 0.0 mm
14:59 19.8 °C 9.9 °C 998.2 hPa ONO 11.9 km/h 37 km/h 53% 0.0 mm
15:04 19 °C 10.4 °C 998.5 hPa ONO 14 km/h 26.2 km/h 57.5% 0.0 mm
15:09 18.6 °C 10.4 °C 998.5 hPa ONO 14.6 km/h 36.2 km/h 59.2% 0.0 mm
15:14 18.2 °C 10.7 °C 998.5 hPa ONO 15.6 km/h 37 km/h 61.9% 0.0 mm
15:19 17.9 °C 11 °C 998.7 hPa Oeste 15.8 km/h 37 km/h 63.9% 0.0 mm
15:24 17.9 °C 10.9 °C 998.7 hPa OSO 16.1 km/h 25.7 km/h 63.3% 0.0 mm
15:29 18.1 °C 10.9 °C 998.7 hPa OSO 14.5 km/h 24.1 km/h 63.2% 0.0 mm
15:34 18.2 °C 11.1 °C 999.2 hPa Oeste 11.9 km/h 19.8 km/h 63.1% 0.0 mm
15:39 18 °C 11.4 °C 999.2 hPa ONO 11.9 km/h 29.6 km/h 65.4% 0.0 mm
15:44 17.4 °C 11.5 °C 999.2 hPa Oeste 11.9 km/h 29.6 km/h 68.5% 0.0 mm
15:49 16.8 °C 11.4 °C 999.2 hPa Oeste 13.1 km/h 25.7 km/h 70.5% 0.3 mm
15:54 16.4 °C 11.2 °C 999.2 hPa SSO 14.8 km/h 20.9 km/h 71.2% 0.5 mm
15:59 16.4 °C 11.3 °C 999.2 hPa SSE 11 km/h 13.7 km/h 72.1% 0.5 mm
16:04 16.4 °C 11.5 °C 999.2 hPa Sur 6.9 km/h 14.5 km/h 72.6% 0.5 mm
16:09 16.6 °C 11.7 °C 999.1 hPa SSO 8 km/h 15.6 km/h 72.9% 0.5 mm
16:14 16.7 °C 11.5 °C 999.1 hPa SSO 9.5 km/h 20.4 km/h 71.7% 0.5 mm
16:19 16.8 °C 11.3 °C 999.1 hPa SO 9.8 km/h 23.7 km/h 69.9% 0.8 mm
16:24 16.9 °C 10.5 °C 999.1 hPa SSO 10.3 km/h 33.5 km/h 66.2% 0.8 mm
16:29 16.8 °C 10.2 °C 999.1 hPa SSO 12.1 km/h 33.8 km/h 65.1% 0.8 mm
16:34 16.8 °C 10 °C 999.1 hPa SSO 14.8 km/h 25.9 km/h 64.3% 0.8 mm
16:39 16.9 °C 10 °C 998.8 hPa SSO 14.8 km/h 25.7 km/h 64% 0.8 mm
16:44 17 °C 9.8 °C 998.8 hPa SSO 14.8 km/h 26.2 km/h 62.6% 0.8 mm
16:49 17.2 °C 10 °C 998.8 hPa SSO 14.1 km/h 25.7 km/h 62.9% 0.8 mm
16:54 17.4 °C 10.3 °C 998.8 hPa SSO 13 km/h 20.9 km/h 63.4% 0.8 mm
16:59 17.7 °C 9.9 °C 998.8 hPa SSO 12.5 km/h 18.5 km/h 60.2% 0.5 mm
17:04 18 °C 9.6 °C 998.8 hPa SSO 11.9 km/h 19.3 km/h 58.1% 0.3 mm
17:09 18.3 °C 9.7 °C 998.7 hPa Sur 10.6 km/h 16.1 km/h 57.4% 0.3 mm
17:14 18.6 °C 9.6 °C 998.7 hPa SSO 8.7 km/h 20.9 km/h 56.1% 0.3 mm
17:19 18.8 °C 9.2 °C 998.7 hPa SSO 9.3 km/h 20.9 km/h 53.9% 0.3 mm
17:24 19 °C 8.9 °C 998.7 hPa SSO 10.3 km/h 20.4 km/h 52.1% 0.3 mm
17:29 19.2 °C 8.6 °C 998.7 hPa Sur 11.1 km/h 20.9 km/h 50.4% 0.0 mm
17:34 19.2 °C 8.6 °C 998.7 hPa Sur 12.2 km/h 23.7 km/h 50.4% 0.0 mm
17:39 19.2 °C 9.9 °C 998.6 hPa SSE 12.8 km/h 29.8 km/h 54.7% 0.0 mm
17:44 18.9 °C 10.9 °C 998.6 hPa SSE 13.7 km/h 34.3 km/h 59.5% 0.0 mm
17:49 18.5 °C 11.3 °C 998.6 hPa SSE 15.7 km/h 33.8 km/h 63.1% 0.0 mm
17:54 18.2 °C 11.5 °C 998.6 hPa Sur 19 km/h 33.5 km/h 64.7% 0.0 mm
17:59 18.2 °C 11.3 °C 998.6 hPa Sur 17.5 km/h 33.8 km/h 64.4% 0.0 mm
18:04 18.1 °C 10.9 °C 998.6 hPa Sur 16.1 km/h 22.5 km/h 62.7% 0.0 mm
18:09 18.1 °C 10.9 °C 998.5 hPa Sur 15.2 km/h 22.5 km/h 63% 0.0 mm
18:14 18 °C 10.8 °C 998.5 hPa Sur 13.7 km/h 31.7 km/h 62.6% 0.0 mm
18:19 17.9 °C 10.6 °C 998.8 hPa SSE 16.1 km/h 32.2 km/h 62.4% 0.0 mm
18:24 17.9 °C 10.8 °C 998.8 hPa SSE 19.8 km/h 32.2 km/h 63.1% 0.0 mm
18:29 17.8 °C 11 °C 998.8 hPa SSE 19.8 km/h 29.6 km/h 64.1% 0.0 mm
18:34 17.7 °C 11.1 °C 998.8 hPa SSE 19.8 km/h 29.8 km/h 65% 0.0 mm
18:39 17.7 °C 11.1 °C 998.6 hPa Sur 19.2 km/h 31.5 km/h 65.1% 0.0 mm
18:44 17.6 °C 11 °C 998.6 hPa Sur 18.4 km/h 35.2 km/h 65.2% 0.0 mm
18:49 17.4 °C 10.7 °C 998.6 hPa Sur 19.7 km/h 35.4 km/h 64.5% 0.0 mm
18:54 17.4 °C 10.6 °C 998.6 hPa Sur 21.7 km/h 35.4 km/h 64.7% 0.0 mm
18:59 17.3 °C 10.8 °C 998.6 hPa Sur 21.7 km/h 33.8 km/h 65.6% 0.0 mm
19:04 17.3 °C 10.9 °C 998.6 hPa Sur 21.7 km/h 33.8 km/h 66.1% 0.0 mm
19:09 17.3 °C 10.9 °C 998.5 hPa Sur 20.4 km/h 32.2 km/h 66% 0.0 mm
19:14 17.5 °C 11.1 °C 998.5 hPa Sur 18.4 km/h 30.6 km/h 65.9% 0.0 mm
19:19 17.7 °C 11 °C 998.5 hPa Sur 17.5 km/h 30.6 km/h 65% 0.0 mm
19:24 17.7 °C 11 °C 998.5 hPa Sur 16.1 km/h 27.4 km/h 64.8% 0.0 mm
19:29 17.8 °C 10.9 °C 998.5 hPa Sur 15.9 km/h 24.1 km/h 64% 0.0 mm
19:34 17.7 °C 10.8 °C 998.5 hPa Sur 15.6 km/h 28.6 km/h 63.8% 0.0 mm
19:39 17.7 °C 10.6 °C 998.5 hPa Sur 16.7 km/h 29 km/h 63.4% 0.0 mm
19:44 17.5 °C 10.6 °C 998.5 hPa Sur 18.4 km/h 29.6 km/h 64% 0.0 mm
19:49 17.4 °C 10.7 °C 998.6 hPa Sur 17.9 km/h 27.4 km/h 64.8% 0.0 mm
19:54 17.3 °C 10.8 °C 998.6 hPa Sur 17.2 km/h 25.9 km/h 65.9% 0.0 mm
19:59 17.2 °C 10.8 °C 998.6 hPa Sur 16 km/h 25.9 km/h 66.5% 0.0 mm
20:04 17.1 °C 10.9 °C 998.8 hPa Sur 14.8 km/h 25.7 km/h 66.9% 0.0 mm
20:09 17.1 °C 10.9 °C 998.8 hPa Sur 14.4 km/h 22.5 km/h 66.8% 0.0 mm
20:14 16.9 °C 10.8 °C 998.8 hPa Sur 13.7 km/h 22.5 km/h 67% 0.0 mm
20:19 16.9 °C 10.7 °C 999.0 hPa Sur 13 km/h 20.9 km/h 67% 0.0 mm
20:24 16.8 °C 10.6 °C 999.0 hPa Sur 11.9 km/h 16.1 km/h 66.9% 0.0 mm
20:29 16.8 °C 10.5 °C 999.0 hPa Sur 11.2 km/h 17.2 km/h 66.5% 0.0 mm
20:34 16.8 °C 10.4 °C 999.2 hPa Sur 10.3 km/h 19 km/h 66.1% 0.0 mm
20:39 16.7 °C 10.4 °C 999.2 hPa Sur 10.2 km/h 19.3 km/h 66.2% 0.0 mm
20:44 16.7 °C 10.5 °C 999.2 hPa Sur 10 km/h 18 km/h 66.8% 0.0 mm
20:49 16.6 °C 10.4 °C 999.5 hPa Sur 10.4 km/h 19.3 km/h 66.7% 0.0 mm
20:54 16.6 °C 10.4 °C 999.5 hPa Sur 11.1 km/h 19.3 km/h 67% 0.0 mm
20:59 16.5 °C 10.3 °C 999.5 hPa Sur 10.5 km/h 19.3 km/h 67% 0.0 mm
21:04 16.5 °C 10.1 °C 999.9 hPa Sur 10 km/h 16.1 km/h 66.2% 0.0 mm
21:09 16.4 °C 9.9 °C 999.9 hPa Sur 9.8 km/h 15.6 km/h 65.4% 0.0 mm
21:14 16.6 °C 9.6 °C 999.9 hPa Sur 9.5 km/h 17.2 km/h 63.6% 0.0 mm
21:19 16.7 °C 9.5 °C 1000.5 hPa Sur 10.1 km/h 17.7 km/h 62.4% 0.0 mm
21:24 16.7 °C 9.4 °C 1000.5 hPa SSO 11.1 km/h 16.7 km/h 61.8% 0.0 mm
21:29 16.8 °C 9.1 °C 1000.5 hPa SO 10.7 km/h 16.1 km/h 60.7% 0.0 mm
21:34 16.8 °C 8.8 °C 1001.1 hPa SO 10 km/h 17.2 km/h 59% 0.0 mm
21:39 16.9 °C 8.1 °C 1001.1 hPa OSO 9.5 km/h 17.7 km/h 56.3% 0.0 mm
21:44 16.9 °C 8.1 °C 1001.1 hPa OSO 8.7 km/h 18.5 km/h 56.1% 0.0 mm
21:49 16.9 °C 7.8 °C 1001.5 hPa ONO 8.7 km/h 19.3 km/h 55.1% 0.0 mm
21:54 16.7 °C 7.7 °C 1001.5 hPa NO 8.7 km/h 19.3 km/h 55.5% 0.0 mm
21:59 16.4 °C 7.3 °C 1001.5 hPa NO 8.2 km/h 14.5 km/h 54.8% 0.0 mm
22:04 16.1 °C 6.3 °C 1002.0 hPa ONO 7.6 km/h 23.3 km/h 52.2% 0.0 mm
22:09 15.8 °C 5.9 °C 1002.0 hPa ONO 8.6 km/h 24.1 km/h 51.6% 0.0 mm
22:14 15.7 °C 5.9 °C 1002.0 hPa ONO 10 km/h 24.1 km/h 51.9% 0.0 mm
22:19 15.6 °C 5.7 °C 1002.3 hPa ONO 10 km/h 17.7 km/h 52% 0.0 mm
22:24 15.4 °C 5.6 °C 1002.3 hPa ONO 10 km/h 16.7 km/h 52% 0.0 mm
22:29 15.3 °C 5.8 °C 1002.3 hPa Oeste 9.8 km/h 16.1 km/h 52.8% 0.0 mm
22:34 15.3 °C 5.9 °C 1002.8 hPa ONO 9.5 km/h 12.9 km/h 53.4% 0.0 mm
22:39 15.3 °C 6 °C 1002.8 hPa ONO 7.2 km/h 9.7 km/h 54% 0.0 mm
22:44 15.2 °C 6 °C 1002.8 hPa ONO 3.9 km/h 9.7 km/h 54% 0.0 mm
22:49 15.2 °C 5.9 °C 1003.3 hPa ONO 4.8 km/h 11.1 km/h 54% 0.0 mm
22:54 15.1 °C 6 °C 1003.3 hPa ONO 6.5 km/h 11.3 km/h 54.8% 0.0 mm
22:59 15.1 °C 5.9 °C 1003.3 hPa ONO 5.6 km/h 12.2 km/h 54.2% 0.0 mm
23:04 15.1 °C 5.7 °C 1003.5 hPa ONO 4.6 km/h 20.1 km/h 53.4% 0.0 mm
23:09 15.1 °C 5.7 °C 1003.5 hPa Oeste 5.3 km/h 20.9 km/h 53.6% 0.0 mm
23:14 15.2 °C 5.5 °C 1003.5 hPa SSO 6.5 km/h 16.1 km/h 52.7% 0.0 mm
23:19 15.3 °C 5.1 °C 1003.8 hPa SSO 7.7 km/h 19 km/h 50.4% 0.0 mm
23:24 15.6 °C 4.9 °C 1003.8 hPa SSO 9.5 km/h 22 km/h 49.2% 0.0 mm
23:29 15.6 °C 4.9 °C 1003.8 hPa SSO 11.2 km/h 24.1 km/h 49.1% 0.0 mm
23:34 15.4 °C 5 °C 1003.9 hPa SO 13.7 km/h 24.1 km/h 49.8% 0.0 mm
23:39 15.4 °C 5 °C 1003.9 hPa SO 12.6 km/h 24.1 km/h 49.9% 0.0 mm
23:44 15.3 °C 5.1 °C 1003.9 hPa SO 11.1 km/h 24.1 km/h 50.7% 0.0 mm
23:49 15.2 °C 5.1 °C 1004.0 hPa SO 10.5 km/h 19.3 km/h 51% 0.0 mm
23:54 15.2 °C 5.1 °C 1004.0 hPa SSO 9.5 km/h 17.7 km/h 51% 0.0 mm
23:59 15.1 °C 5.1 °C 1004.0 hPa SO 9.5 km/h 18.5 km/h 51% 0.0 mm
Murcia-Puente Tocinos, España
Compliments of Weather Underground - 3 mb

La estación de MeteoMurcia.com, publica sus datos en los siguientes proyectos:

Weather Underground PWS IMURCIAP2 Meteoclimatic www.awekas.at

W3Counter
Web Analytics